createdAt,value
2023-05-01T00:01:30.404Z,101458.25
2023-05-01T00:03:57.029Z,101452.44
2023-05-01T00:06:23.811Z,101452.56
2023-05-01T00:08:50.354Z,101450.47
2023-05-01T00:11:16.749Z,101439.44
2023-05-01T00:13:43.226Z,101437.88
2023-05-01T00:16:11.245Z,101441.28
2023-05-01T00:18:38.457Z,101432.94
2023-05-01T00:21:05.242Z,101435.53
2023-05-01T00:23:31.855Z,101428.13
2023-05-01T00:25:58.356Z,101431.22
2023-05-01T00:28:24.765Z,101427.31
2023-05-01T00:30:51.864Z,101420.63
2023-05-01T00:33:18.514Z,101417.69
2023-05-01T00:35:45.664Z,101420.16
2023-05-01T00:38:12.806Z,101413.09
2023-05-01T00:40:46.519Z,101415.44
2023-05-01T00:43:13.514Z,101414.38
2023-05-01T00:45:43.934Z,101409.19
2023-05-01T00:48:10.952Z,101409.69
2023-05-01T00:50:38.022Z,101407.34
2023-05-01T00:53:05.311Z,101410.25
2023-05-01T00:55:33.467Z,101410.38
2023-05-01T00:58:01.723Z,101403.31
2023-05-01T01:00:29.509Z,101404.00
2023-05-01T01:02:56.541Z,101397.19
2023-05-01T01:05:27.220Z,101403.19
2023-05-01T01:08:05.619Z,101398.69
2023-05-01T01:10:52.874Z,101400.22
2023-05-01T01:13:32.641Z,101399.16
2023-05-01T01:16:09.157Z,101388.94
2023-05-01T01:18:47.414Z,101394.69
2023-05-01T01:21:35.619Z,101392.78
2023-05-01T01:24:11.146Z,101387.25
2023-05-01T01:27:03.554Z,101387.63
2023-05-01T01:29:51.939Z,101380.00
2023-05-01T01:32:33.518Z,101375.78
2023-05-01T01:35:04.831Z,101376.59
2023-05-01T01:38:09.312Z,101367.72
2023-05-01T01:40:40.180Z,101362.41
2023-05-01T01:43:10.483Z,101356.41
2023-05-01T01:45:41.215Z,101357.19
2023-05-01T01:48:13.032Z,101359.53
2023-05-01T01:50:42.305Z,101356.84
2023-05-01T01:53:13.037Z,101346.63
2023-05-01T01:55:43.298Z,101346.16
2023-05-01T01:58:13.211Z,101343.00
2023-05-01T02:00:42.094Z,101336.06
2023-05-01T02:03:10.435Z,101342.63
2023-05-01T02:05:40.407Z,101340.75
2023-05-01T02:08:08.443Z,101334.25
2023-05-01T02:10:36.990Z,101325.44
2023-05-01T02:13:04.517Z,101329.22
2023-05-01T02:15:32.630Z,101325.22
2023-05-01T02:18:05.470Z,101324.16
2023-05-01T02:20:33.419Z,101322.00
2023-05-01T02:23:00.471Z,101323.88
2023-05-01T02:25:30.454Z,101320.94
2023-05-01T02:28:01.704Z,101306.94
2023-05-01T02:30:28.442Z,101307.28
2023-05-01T02:32:56.235Z,101304.44
2023-05-01T02:35:23.236Z,101294.09
2023-05-01T02:37:49.890Z,101300.56
2023-05-01T02:40:16.778Z,101288.94
2023-05-01T02:42:44.858Z,101287.53
2023-05-01T02:45:19.542Z,101281.69
2023-05-01T02:47:50.489Z,101275.81
2023-05-01T02:50:17.495Z,101277.47
2023-05-01T02:52:45.292Z,101278.03
2023-05-01T02:55:32.878Z,101278.06
2023-05-01T02:57:59.900Z,101270.69
2023-05-01T03:00:27.709Z,101270.41
2023-05-01T03:02:54.839Z,101259.03
2023-05-01T03:05:21.352Z,101260.22
2023-05-01T03:07:48.351Z,101258.91
2023-05-01T03:10:14.927Z,101265.34
2023-05-01T03:12:41.958Z,101260.31
2023-05-01T03:15:09.325Z,101258.75
2023-05-01T03:17:35.832Z,101259.47
2023-05-01T03:20:02.394Z,101263.84
2023-05-01T03:22:29.755Z,101254.53
2023-05-01T03:24:56.170Z,101250.81
2023-05-01T03:27:22.609Z,101247.41
2023-05-01T03:29:49.763Z,101238.97
2023-05-01T03:32:17.710Z,101235.41
2023-05-01T03:34:45.648Z,101238.81
2023-05-01T03:37:12.803Z,101233.50
2023-05-01T03:39:39.569Z,101236.66
2023-05-01T03:42:24.756Z,101231.03
2023-05-01T03:44:57.296Z,101230.19
2023-05-01T03:47:24.464Z,101230.66
2023-05-01T03:49:50.914Z,101227.13
2023-05-01T03:52:17.390Z,101219.72
2023-05-01T03:54:44.612Z,101213.66
2023-05-01T03:57:21.177Z,101216.63
2023-05-01T03:59:47.957Z,101205.13
2023-05-01T04:02:14.631Z,101212.66
2023-05-01T04:04:41.997Z,101208.53
2023-05-01T04:07:08.496Z,101205.00
2023-05-01T04:09:35.572Z,101207.59
2023-05-01T04:12:05.778Z,101207.13
2023-05-01T04:14:32.340Z,101204.78
2023-05-01T04:16:59.335Z,101202.78
2023-05-01T04:19:27.226Z,101212.91
2023-05-01T04:21:57.832Z,101195.38
2023-05-01T04:24:25.592Z,101201.53
2023-05-01T04:26:53.569Z,101204.13
2023-05-01T04:29:20.201Z,101202.00
2023-05-01T04:31:46.680Z,101195.94
2023-05-01T04:34:13.163Z,101197.22
2023-05-01T04:36:39.858Z,101200.66
2023-05-01T04:39:06.710Z,101196.28
2023-05-01T04:41:33.402Z,101202.63
2023-05-01T04:44:00.173Z,101190.09
2023-05-01T04:46:26.845Z,101200.66
2023-05-01T04:48:53.804Z,101187.38
2023-05-01T04:51:20.528Z,101187.16
2023-05-01T04:53:47.324Z,101182.72
2023-05-01T04:56:22.847Z,101192.44
2023-05-01T04:58:52.799Z,101189.66
2023-05-01T05:01:24.730Z,101187.66
2023-05-01T05:03:52.238Z,101189.19
2023-05-01T05:06:19.274Z,101182.72
2023-05-01T05:08:45.702Z,101184.50
2023-05-01T05:11:12.598Z,101182.84
2023-05-01T05:13:48.757Z,101180.59
2023-05-01T05:16:15.764Z,101183.91
2023-05-01T05:18:42.558Z,101187.66
2023-05-01T05:21:10.380Z,101175.66
2023-05-01T05:23:38.292Z,101178.47
2023-05-01T05:26:05.891Z,101173.75
2023-05-01T05:28:32.427Z,101176.19
2023-05-01T05:30:58.995Z,101176.53
2023-05-01T05:33:26.125Z,101175.56
2023-05-01T05:35:53.067Z,101166.28
2023-05-01T05:38:23.906Z,101171.44
2023-05-01T05:40:54.588Z,101167.16
2023-05-01T05:43:21.961Z,101164.97
2023-05-01T05:45:48.921Z,101167.44
2023-05-01T05:48:15.502Z,101165.13
2023-05-01T05:50:42.057Z,101163.88
2023-05-01T05:53:09.917Z,101165.47
2023-05-01T05:55:37.278Z,101159.09
2023-05-01T05:58:06.665Z,101157.91
2023-05-01T06:00:33.531Z,101138.78
2023-05-01T06:03:04.203Z,101135.41
2023-05-01T06:05:32.416Z,101136.13
2023-05-01T06:07:59.024Z,101141.81
2023-05-01T06:10:25.479Z,101127.91
2023-05-01T06:13:02.866Z,101140.72
2023-05-01T06:15:38.737Z,101134.06
2023-05-01T06:18:06.110Z,101138.50
2023-05-01T06:20:32.648Z,101138.56
2023-05-01T06:22:59.229Z,101136.88
2023-05-01T06:25:32.626Z,101142.81
2023-05-01T06:27:59.281Z,101136.97
2023-05-01T06:30:25.973Z,101138.56
2023-05-01T06:32:52.934Z,101129.78
2023-05-01T06:35:20.933Z,101130.72
2023-05-01T06:37:47.491Z,101124.75
2023-05-01T06:40:14.169Z,101127.88
2023-05-01T06:42:42.150Z,101126.22
2023-05-01T06:45:09.148Z,101130.84
2023-05-01T06:47:35.824Z,101131.44
2023-05-01T06:50:06.140Z,101132.00
2023-05-01T06:52:33.309Z,101126.13
2023-05-01T06:54:59.760Z,101126.75
2023-05-01T06:57:26.314Z,101116.94
2023-05-01T06:59:54.152Z,101123.50
2023-05-01T07:02:21.077Z,101107.06
2023-05-01T07:04:47.660Z,101106.50
2023-05-01T07:07:14.169Z,101103.53
2023-05-01T07:09:41.497Z,101098.66
2023-05-01T07:12:08.609Z,101095.25
2023-05-01T07:14:36.033Z,101100.97
2023-05-01T07:17:03.456Z,101092.84
2023-05-01T07:19:29.972Z,101101.06
2023-05-01T07:21:56.367Z,101106.53
2023-05-01T07:24:22.797Z,101100.31
2023-05-01T07:26:49.224Z,101099.47
2023-05-01T07:29:16.489Z,101093.25
2023-05-01T07:31:43.502Z,101095.44
2023-05-01T07:34:10.227Z,101098.72
2023-05-01T07:36:36.754Z,101095.44
2023-05-01T07:39:04.085Z,101095.41
2023-05-01T07:41:31.416Z,101085.06
2023-05-01T07:44:01.068Z,101082.78
2023-05-01T07:46:27.779Z,101087.91
2023-05-01T07:48:54.468Z,101085.41
2023-05-01T07:51:21.104Z,101087.81
2023-05-01T07:53:48.612Z,101081.19
2023-05-01T07:56:15.204Z,101083.97
2023-05-01T07:58:42.569Z,101077.09
2023-05-01T08:01:09.145Z,101078.38
2023-05-01T08:03:36.222Z,101067.97
2023-05-01T08:06:02.779Z,101068.09
2023-05-01T08:08:29.330Z,101064.41
2023-05-01T08:10:56.183Z,101077.00
2023-05-01T08:13:22.784Z,101066.88
2023-05-01T08:15:49.388Z,101064.66
2023-05-01T08:18:20.212Z,101074.38
2023-05-01T08:20:50.107Z,101059.53
2023-05-01T08:23:17.488Z,101068.78
2023-05-01T08:25:47.371Z,101070.03
2023-05-01T08:28:14.794Z,101065.22
2023-05-01T08:30:41.243Z,101065.91
2023-05-01T08:33:07.918Z,101065.72
2023-05-01T08:35:34.433Z,101060.97
2023-05-01T08:38:01.603Z,101064.28
2023-05-01T08:40:33.214Z,101058.22
2023-05-01T08:43:00.936Z,101055.00
2023-05-01T08:45:27.689Z,101055.59
2023-05-01T08:47:55.298Z,101056.97
2023-05-01T08:50:23.324Z,101061.09
2023-05-01T08:52:52.777Z,101063.59
2023-05-01T08:55:20.457Z,101056.72
2023-05-01T08:57:48.540Z,101059.66
2023-05-01T09:00:19.457Z,101054.28
2023-05-01T09:02:48.371Z,101053.13
2023-05-01T09:05:19.640Z,101051.31
2023-05-01T09:07:46.981Z,101045.25
2023-05-01T09:10:17.150Z,101043.00
2023-05-01T09:12:46.847Z,101040.16
2023-05-01T09:15:14.067Z,101038.56
2023-05-01T09:17:42.578Z,101039.00
2023-05-01T09:20:10.472Z,101032.09
2023-05-01T09:22:37.370Z,101028.44
2023-05-01T09:25:04.312Z,101031.06
2023-05-01T09:27:35.879Z,101026.59
2023-05-01T09:30:03.375Z,101023.88
2023-05-01T09:32:29.976Z,101027.88
2023-05-01T09:35:12.441Z,101028.88
2023-05-01T09:37:39.285Z,101020.66
2023-05-01T09:40:06.477Z,101019.81
2023-05-01T09:42:34.536Z,101020.88
2023-05-01T09:45:03.571Z,101019.06
2023-05-01T09:47:30.572Z,101015.31
2023-05-01T09:49:59.671Z,101006.88
2023-05-01T09:52:28.069Z,101008.31
2023-05-01T09:55:16.519Z,100998.78
2023-05-01T09:57:45.221Z,101008.59
2023-05-01T10:00:15.419Z,100999.72
2023-05-01T10:02:47.657Z,100996.19
2023-05-01T10:05:15.470Z,101003.50
2023-05-01T10:08:14.808Z,101002.81
2023-05-01T10:10:43.648Z,100996.44
2023-05-01T10:13:15.065Z,100997.56
2023-05-01T10:15:41.699Z,100997.50
2023-05-01T10:18:11.462Z,100997.25
2023-05-01T10:20:38.038Z,100994.81
2023-05-01T10:23:04.565Z,100994.16
2023-05-01T10:25:32.321Z,100986.75
2023-05-01T10:27:59.441Z,100991.75
2023-05-01T10:30:26.260Z,100980.31
2023-05-01T10:32:53.070Z,100981.28
2023-05-01T10:35:25.818Z,100977.72
2023-05-01T10:38:00.881Z,100985.66
2023-05-01T10:40:39.449Z,100968.00
2023-05-01T10:43:31.349Z,100972.38
2023-05-01T10:46:07.359Z,100966.41
2023-05-01T10:48:40.246Z,100966.72
2023-05-01T10:51:13.183Z,100954.94
2023-05-01T10:53:41.163Z,100953.63
2023-05-01T10:56:26.946Z,100959.47
2023-05-01T10:58:53.300Z,100955.91
2023-05-01T11:01:37.639Z,100956.88
2023-05-01T11:04:04.976Z,100950.38
2023-05-01T11:06:32.950Z,100946.97
2023-05-01T11:09:00.542Z,100946.59
2023-05-01T11:11:27.964Z,100944.31
2023-05-01T11:14:06.530Z,100950.41
2023-05-01T11:16:39.493Z,100936.97
2023-05-01T11:19:33.124Z,100941.09
2023-05-01T11:22:00.512Z,100936.47
2023-05-01T11:24:33.254Z,100938.41
2023-05-01T11:27:02.615Z,100932.69
2023-05-01T11:29:32.825Z,100932.72
2023-05-01T11:32:00.697Z,100928.53
2023-05-01T11:34:27.580Z,100931.28
2023-05-01T11:36:54.284Z,100929.16
2023-05-01T11:39:22.040Z,100932.69
2023-05-01T11:41:48.612Z,100929.56
2023-05-01T11:44:16.764Z,100919.78
2023-05-01T11:46:43.277Z,100909.72
2023-05-01T11:49:11.026Z,100914.66
2023-05-01T11:51:37.645Z,100909.91
2023-05-01T11:54:06.594Z,100902.53
2023-05-01T11:56:34.221Z,100901.25
2023-05-01T11:59:15.512Z,100894.75
2023-05-01T12:01:44.600Z,100895.22
2023-05-01T12:04:12.960Z,100893.03
2023-05-01T12:06:47.030Z,100900.09
2023-05-01T12:09:20.194Z,100897.81
2023-05-01T12:11:52.309Z,100891.13
2023-05-01T12:14:21.473Z,100893.38
2023-05-01T12:16:48.552Z,100900.88
2023-05-01T12:19:15.922Z,100897.28
2023-05-01T12:21:42.991Z,100891.63
2023-05-01T12:24:16.940Z,100898.91
2023-05-01T12:26:45.477Z,100887.28
2023-05-01T12:29:12.294Z,100896.25
2023-05-01T12:31:50.012Z,100887.41
2023-05-01T12:34:16.548Z,100885.75
2023-05-01T12:36:54.413Z,100882.78
2023-05-01T12:39:21.991Z,100882.78
2023-05-01T12:41:49.516Z,100877.41
2023-05-01T12:44:27.343Z,100877.66
2023-05-01T12:46:59.516Z,100875.72
2023-05-01T12:49:27.483Z,100876.31
2023-05-01T12:51:55.923Z,100877.91
2023-05-01T12:54:30.330Z,100865.06
2023-05-01T12:57:06.725Z,100867.28
2023-05-01T12:59:33.220Z,100861.03
2023-05-01T13:02:05.413Z,100863.34
2023-05-01T13:04:32.351Z,100854.41
2023-05-01T13:06:59.726Z,100853.13
2023-05-01T13:09:30.670Z,100846.00
2023-05-01T13:12:05.069Z,100846.88
2023-05-01T13:14:40.306Z,100848.50
2023-05-01T13:17:10.540Z,100843.94
2023-05-01T13:19:37.806Z,100844.47
2023-05-01T13:22:05.392Z,100852.34
2023-05-01T13:24:39.503Z,100832.91
2023-05-01T13:27:08.602Z,100836.94
2023-05-01T13:29:35.455Z,100835.53
2023-05-01T13:32:06.534Z,100838.88
2023-05-01T13:34:34.317Z,100838.91
2023-05-01T13:37:01.632Z,100847.66
2023-05-01T13:39:28.770Z,100845.50
2023-05-01T13:41:55.434Z,100837.63
2023-05-01T13:44:22.303Z,100839.66
2023-05-01T13:46:49.797Z,100842.41
2023-05-01T13:49:20.604Z,100841.28
2023-05-01T13:51:48.696Z,100837.44
2023-05-01T13:54:16.557Z,100845.94
2023-05-01T13:56:43.071Z,100831.75
2023-05-01T13:59:10.597Z,100838.78
2023-05-01T14:01:45.977Z,100837.00
2023-05-01T14:04:21.188Z,100836.91
2023-05-01T14:06:48.591Z,100828.53
2023-05-01T14:09:18.346Z,100827.88
2023-05-01T14:11:46.829Z,100818.66
2023-05-01T14:14:17.786Z,100825.03
2023-05-01T14:16:48.933Z,100816.81
2023-05-01T14:19:18.033Z,100821.22
2023-05-01T14:21:44.467Z,100819.94
2023-05-01T14:24:11.289Z,100819.47
2023-05-01T14:26:43.487Z,100817.63
2023-05-01T14:29:23.744Z,100817.22
2023-05-01T14:31:51.492Z,100814.28
2023-05-01T14:34:19.082Z,100817.28
2023-05-01T14:36:45.464Z,100814.84
2023-05-01T14:39:12.411Z,100810.50
2023-05-01T14:41:42.609Z,100813.81
2023-05-01T14:44:17.786Z,100810.28
2023-05-01T14:46:47.400Z,100803.81
2023-05-01T14:49:22.389Z,100799.22
2023-05-01T14:51:49.432Z,100806.47
2023-05-01T14:54:16.301Z,100808.22
2023-05-01T14:56:43.804Z,100807.75
2023-05-01T14:59:10.785Z,100804.63
2023-05-01T15:01:37.238Z,100805.38
2023-05-01T15:04:06.439Z,100807.44
2023-05-01T15:06:34.158Z,100797.69
2023-05-01T15:09:00.912Z,100806.31
2023-05-01T15:11:30.410Z,100794.00
2023-05-01T15:13:56.837Z,100794.41
2023-05-01T15:16:23.592Z,100796.00
2023-05-01T15:18:50.146Z,100789.81
2023-05-01T15:21:16.575Z,100792.16
2023-05-01T15:23:45.096Z,100792.75
2023-05-01T15:26:12.042Z,100793.38
2023-05-01T15:28:38.749Z,100791.13
2023-05-01T15:31:05.882Z,100791.31
2023-05-01T15:33:32.338Z,100789.34
2023-05-01T15:35:58.797Z,100777.88
2023-05-01T15:38:26.039Z,100786.09
2023-05-01T15:40:53.928Z,100779.28
2023-05-01T15:43:22.263Z,100784.41
2023-05-01T15:45:49.485Z,100783.44
2023-05-01T15:48:16.053Z,100784.53
2023-05-01T15:50:42.515Z,100782.06
2023-05-01T15:53:09.025Z,100773.19
2023-05-01T15:55:36.783Z,100774.59
2023-05-01T15:58:03.514Z,100776.69
2023-05-01T16:00:29.889Z,100778.75
2023-05-01T16:02:56.367Z,100784.56
2023-05-01T16:05:22.916Z,100788.84
2023-05-01T16:07:54.252Z,100776.53
2023-05-01T16:10:20.939Z,100780.06
2023-05-01T16:12:47.387Z,100779.63
2023-05-01T16:15:14.773Z,100777.94
2023-05-01T16:17:43.604Z,100777.47
2023-05-01T16:20:12.061Z,100772.75
2023-05-01T16:22:43.239Z,100778.47
2023-05-01T16:25:10.851Z,100776.94
2023-05-01T16:27:41.273Z,100780.34
2023-05-01T16:30:09.080Z,100781.66
2023-05-01T16:32:35.925Z,100786.19
2023-05-01T16:35:03.837Z,100785.00
2023-05-01T16:37:30.294Z,100783.03
2023-05-01T16:40:00.980Z,100782.66
2023-05-01T16:42:27.799Z,100778.47
2023-05-01T16:44:54.373Z,100784.97
2023-05-01T16:47:20.900Z,100789.56
2023-05-01T16:49:47.335Z,100788.66
2023-05-01T16:52:15.515Z,100795.16
2023-05-01T16:54:42.155Z,100786.06
2023-05-01T16:57:08.889Z,100789.66
2023-05-01T16:59:35.365Z,100791.63
2023-05-01T17:02:05.745Z,100794.22
2023-05-01T17:04:32.497Z,100792.16
2023-05-01T17:06:59.090Z,100789.28
2023-05-01T17:09:26.401Z,100805.00
2023-05-01T17:11:56.485Z,100795.63
2023-05-01T17:14:23.095Z,100801.09
2023-05-01T17:16:50.508Z,100798.56
2023-05-01T17:19:17.323Z,100795.00
2023-05-01T17:21:43.785Z,100797.44
2023-05-01T17:24:10.274Z,100804.25
2023-05-01T17:26:36.945Z,100795.94
2023-05-01T17:29:03.586Z,100808.56
2023-05-01T17:31:30.096Z,100798.84
2023-05-01T17:33:56.513Z,100795.91
2023-05-01T17:36:23.791Z,100815.31
2023-05-01T17:38:50.389Z,100806.56
2023-05-01T17:41:17.094Z,100811.66
2023-05-01T17:43:44.729Z,100807.81
2023-05-01T17:46:11.648Z,100809.22
2023-05-01T17:48:38.176Z,100810.47
2023-05-01T17:51:04.607Z,100807.88
2023-05-01T17:53:31.149Z,100823.97
2023-05-01T17:55:58.409Z,100812.03
2023-05-01T17:58:24.856Z,100816.91
2023-05-01T18:00:51.775Z,100819.72
2023-05-01T18:03:18.437Z,100824.06
2023-05-01T18:05:44.925Z,100825.13
2023-05-01T18:08:11.514Z,100829.00
2023-05-01T18:10:38.086Z,100825.59
2023-05-01T18:13:08.124Z,100831.69
2023-05-01T18:15:34.599Z,100834.13
2023-05-01T18:18:01.046Z,100834.78
2023-05-01T18:20:28.747Z,100830.44
2023-05-01T18:22:55.331Z,100831.38
2023-05-01T18:25:22.355Z,100829.63
2023-05-01T18:27:49.059Z,100831.91
2023-05-01T18:30:15.498Z,100839.84
2023-05-01T18:32:48.271Z,100840.41
2023-05-01T18:35:16.639Z,100836.59
2023-05-01T18:37:43.972Z,100843.38
2023-05-01T18:40:11.364Z,100837.78
2023-05-01T18:42:39.471Z,100840.28
2023-05-01T18:45:07.203Z,100848.81
2023-05-01T18:47:33.661Z,100850.19
2023-05-01T18:50:00.203Z,100841.44
2023-05-01T18:52:29.377Z,100844.81
2023-05-01T18:54:55.822Z,100846.69
2023-05-01T18:57:22.868Z,100861.81
2023-05-01T18:59:49.286Z,100867.66
2023-05-01T19:02:15.668Z,100859.25
2023-05-01T19:04:56.066Z,100872.16
2023-05-01T19:07:23.662Z,100870.94
2023-05-01T19:09:50.208Z,100880.91
2023-05-01T19:12:16.607Z,100875.72
2023-05-01T19:14:43.227Z,100890.53
2023-05-01T19:17:09.825Z,100889.22
2023-05-01T19:19:36.525Z,100892.28
2023-05-01T19:22:03.046Z,100894.00
2023-05-01T19:24:29.462Z,100901.00
2023-05-01T19:26:55.862Z,100904.53
2023-05-01T19:29:22.401Z,100901.59
2023-05-01T19:31:48.905Z,100908.63
2023-05-01T19:34:15.365Z,100910.94
2023-05-01T19:36:41.814Z,100915.31
2023-05-01T19:39:08.368Z,100923.38
2023-05-01T19:41:34.878Z,100922.69
2023-05-01T19:44:01.447Z,100936.88
2023-05-01T19:46:28.042Z,100943.78
2023-05-01T19:48:54.525Z,100935.50
2023-05-01T19:51:21.260Z,100947.00
2023-05-01T19:53:47.687Z,100947.59
2023-05-01T19:56:14.080Z,100943.41
2023-05-01T19:58:40.867Z,100942.75
2023-05-01T20:01:09.273Z,100950.34
2023-05-01T20:03:36.015Z,100948.13
2023-05-01T20:06:03.244Z,100957.47
2023-05-01T20:08:29.717Z,100969.28
2023-05-01T20:10:56.721Z,100967.44
2023-05-01T20:13:23.333Z,100960.63
2023-05-01T20:15:51.102Z,100970.56
2023-05-01T20:18:17.970Z,100969.56
2023-05-01T20:20:44.432Z,100964.84
2023-05-01T20:23:16.204Z,100974.22
2023-05-01T20:25:43.377Z,100970.34
2023-05-01T20:28:11.055Z,100978.25
2023-05-01T20:30:42.855Z,100980.25
2023-05-01T20:33:09.428Z,100980.19
2023-05-01T20:35:36.491Z,100991.84
2023-05-01T20:38:04.401Z,101007.03
2023-05-01T20:40:31.881Z,101005.25
2023-05-01T20:43:01.947Z,101018.16
2023-05-01T20:45:31.598Z,101021.97
2023-05-01T20:47:58.581Z,101038.38
2023-05-01T20:50:29.217Z,101036.53
2023-05-01T20:52:56.181Z,101034.38
2023-05-01T20:55:23.678Z,101036.66
2023-05-01T20:57:50.354Z,101036.16
2023-05-01T21:00:17.223Z,101034.53
2023-05-01T21:02:43.865Z,101033.94
2023-05-01T21:05:10.990Z,101038.53
2023-05-01T21:07:41.034Z,101036.38
2023-05-01T21:10:10.093Z,101036.72
2023-05-01T21:12:36.970Z,101018.19
2023-05-01T21:15:04.489Z,101027.53
2023-05-01T21:17:32.968Z,101032.72
2023-05-01T21:19:59.739Z,101029.13
2023-05-01T21:22:26.993Z,101031.88
2023-05-01T21:24:55.757Z,101025.31
2023-05-01T21:27:24.150Z,101035.16
2023-05-01T21:30:00.946Z,101029.13
2023-05-01T21:32:33.282Z,101038.94
2023-05-01T21:35:00.637Z,101041.41
2023-05-01T21:37:29.099Z,101044.38
2023-05-01T21:39:58.944Z,101040.91
2023-05-01T21:42:39.240Z,101047.44
2023-05-01T21:45:10.984Z,101048.56
2023-05-01T21:47:39.540Z,101044.25
2023-05-01T21:50:07.670Z,101044.03
2023-05-01T21:52:37.189Z,101051.72
2023-05-01T21:55:09.212Z,101058.03
2023-05-01T21:57:36.927Z,101063.56
2023-05-01T22:00:05.012Z,101063.03
2023-05-01T22:02:47.898Z,101068.28
2023-05-01T22:05:17.909Z,101070.47
2023-05-01T22:07:46.243Z,101069.16
2023-05-01T22:10:40.542Z,101070.56
2023-05-01T22:13:07.124Z,101071.97
2023-05-01T22:15:38.627Z,101072.00
2023-05-01T22:18:05.131Z,101078.59
2023-05-01T22:20:32.253Z,101076.69
2023-05-01T22:22:58.706Z,101082.41
2023-05-01T22:25:25.478Z,101079.44
2023-05-01T22:27:52.277Z,101080.81
2023-05-01T22:30:18.648Z,101081.38
2023-05-01T22:32:45.056Z,101082.22
2023-05-01T22:35:11.813Z,101086.59
2023-05-01T22:37:38.357Z,101078.97
2023-05-01T22:40:05.552Z,101088.25
2023-05-01T22:42:32.078Z,101083.88
2023-05-01T22:44:58.451Z,101087.72
2023-05-01T22:47:24.903Z,101081.47
2023-05-01T22:49:51.615Z,101091.84
2023-05-01T22:52:18.190Z,101088.31
2023-05-01T22:54:44.610Z,101082.03
2023-05-01T22:57:11.269Z,101087.78
2023-05-01T22:59:39.478Z,101094.56
2023-05-01T23:02:06.036Z,101090.75
2023-05-01T23:04:32.527Z,101097.03
2023-05-01T23:06:59.106Z,101104.66
2023-05-01T23:09:26.325Z,101093.75
2023-05-01T23:11:52.745Z,101101.94
2023-05-01T23:14:19.696Z,101104.16
2023-05-01T23:16:46.100Z,101112.56
2023-05-01T23:19:21.792Z,101111.44
2023-05-01T23:21:49.758Z,101115.00
2023-05-01T23:24:18.225Z,101116.09
2023-05-01T23:26:44.883Z,101109.56
2023-05-01T23:29:13.410Z,101116.94
2023-05-01T23:31:45.288Z,101111.19
2023-05-01T23:34:15.366Z,101120.75
2023-05-01T23:36:44.396Z,101111.19
2023-05-01T23:39:11.183Z,101112.28
2023-05-01T23:41:38.185Z,101116.91
2023-05-01T23:44:04.843Z,101115.84
2023-05-01T23:46:31.431Z,101113.66
2023-05-01T23:48:57.866Z,101116.66
2023-05-01T23:51:24.357Z,101107.09
2023-05-01T23:53:50.871Z,101119.91
2023-05-01T23:56:17.376Z,101115.88
2023-05-01T23:58:43.757Z,101119.13
